sensor_id;sensor_type;location;lat;lon;timestamp;P1;durP1;ratioP1;P2;durP2;ratioP2
75090;SDS011;63674;48.048;8.306;2023-04-25T00:01:25;7.45;;;2.15;;
75090;SDS011;63674;48.048;8.306;2023-04-25T00:03:54;11.77;;;2.20;;
75090;SDS011;63674;48.048;8.306;2023-04-25T00:06:24;8.45;;;2.25;;
75090;SDS011;63674;48.048;8.306;2023-04-25T00:08:54;7.82;;;2.40;;
75090;SDS011;63674;48.048;8.306;2023-04-25T00:11:23;7.73;;;2.43;;
75090;SDS011;63674;48.048;8.306;2023-04-25T00:13:52;6.68;;;2.10;;
75090;SDS011;63674;48.048;8.306;2023-04-25T00:16:20;9.50;;;2.45;;
75090;SDS011;63674;48.048;8.306;2023-04-25T00:18:50;6.55;;;1.95;;
75090;SDS011;63674;48.048;8.306;2023-04-25T00:21:20;6.65;;;2.40;;
75090;SDS011;63674;48.048;8.306;2023-04-25T00:23:51;8.10;;;2.27;;
75090;SDS011;63674;48.048;8.306;2023-04-25T00:26:22;5.88;;;2.10;;
75090;SDS011;63674;48.048;8.306;2023-04-25T00:28:51;8.48;;;2.47;;
75090;SDS011;63674;48.048;8.306;2023-04-25T00:31:20;5.75;;;2.20;;
75090;SDS011;63674;48.048;8.306;2023-04-25T00:33:48;7.82;;;2.15;;
75090;SDS011;63674;48.048;8.306;2023-04-25T00:36:17;8.40;;;2.80;;
75090;SDS011;63674;48.048;8.306;2023-04-25T00:38:46;8.30;;;2.50;;
75090;SDS011;63674;48.048;8.306;2023-04-25T00:41:14;7.82;;;2.55;;
75090;SDS011;63674;48.048;8.306;2023-04-25T00:43:44;9.30;;;2.47;;
75090;SDS011;63674;48.048;8.306;2023-04-25T00:46:16;9.15;;;2.53;;
75090;SDS011;63674;48.048;8.306;2023-04-25T00:48:44;9.53;;;2.50;;
75090;SDS011;63674;48.048;8.306;2023-04-25T00:51:13;9.32;;;2.95;;
75090;SDS011;63674;48.048;8.306;2023-04-25T00:53:47;8.15;;;2.25;;
75090;SDS011;63674;48.048;8.306;2023-04-25T00:56:18;6.25;;;2.33;;
75090;SDS011;63674;48.048;8.306;2023-04-25T00:58:49;6.68;;;2.50;;
75090;SDS011;63674;48.048;8.306;2023-04-25T01:01:20;7.67;;;2.30;;
75090;SDS011;63674;48.048;8.306;2023-04-25T01:03:49;7.82;;;2.22;;
75090;SDS011;63674;48.048;8.306;2023-04-25T01:06:18;7.63;;;2.38;;
75090;SDS011;63674;48.048;8.306;2023-04-25T01:08:47;6.95;;;2.50;;
75090;SDS011;63674;48.048;8.306;2023-04-25T01:11:16;8.23;;;2.53;;
75090;SDS011;63674;48.048;8.306;2023-04-25T01:13:45;9.37;;;2.10;;
75090;SDS011;63674;48.048;8.306;2023-04-25T01:16:15;8.65;;;2.40;;
75090;SDS011;63674;48.048;8.306;2023-04-25T01:18:45;7.68;;;2.50;;
75090;SDS011;63674;48.048;8.306;2023-04-25T01:21:15;9.00;;;2.50;;
75090;SDS011;63674;48.048;8.306;2023-04-25T01:23:44;8.75;;;2.35;;
75090;SDS011;63674;48.048;8.306;2023-04-25T01:26:13;8.00;;;2.10;;
75090;SDS011;63674;48.048;8.306;2023-04-25T01:28:44;7.18;;;2.30;;
75090;SDS011;63674;48.048;8.306;2023-04-25T01:31:13;6.95;;;2.50;;
75090;SDS011;63674;48.048;8.306;2023-04-25T01:33:43;7.43;;;2.25;;
75090;SDS011;63674;48.048;8.306;2023-04-25T01:36:12;8.10;;;2.13;;
75090;SDS011;63674;48.048;8.306;2023-04-25T01:38:43;6.60;;;2.20;;
75090;SDS011;63674;48.048;8.306;2023-04-25T01:41:13;7.57;;;2.15;;
75090;SDS011;63674;48.048;8.306;2023-04-25T01:43:43;8.40;;;2.33;;
75090;SDS011;63674;48.048;8.306;2023-04-25T01:46:13;8.77;;;2.30;;
75090;SDS011;63674;48.048;8.306;2023-04-25T01:48:42;8.85;;;2.50;;
75090;SDS011;63674;48.048;8.306;2023-04-25T01:51:10;5.93;;;2.07;;
75090;SDS011;63674;48.048;8.306;2023-04-25T01:53:41;7.70;;;2.30;;
75090;SDS011;63674;48.048;8.306;2023-04-25T01:56:11;7.07;;;2.40;;
75090;SDS011;63674;48.048;8.306;2023-04-25T01:58:39;6.40;;;2.00;;
75090;SDS011;63674;48.048;8.306;2023-04-25T02:01:08;6.43;;;2.17;;
75090;SDS011;63674;48.048;8.306;2023-04-25T02:03:36;7.10;;;2.23;;
75090;SDS011;63674;48.048;8.306;2023-04-25T02:06:05;7.30;;;2.20;;
75090;SDS011;63674;48.048;8.306;2023-04-25T02:08:34;6.57;;;2.30;;
75090;SDS011;63674;48.048;8.306;2023-04-25T02:11:05;8.55;;;2.40;;
75090;SDS011;63674;48.048;8.306;2023-04-25T02:13:33;7.30;;;2.30;;
75090;SDS011;63674;48.048;8.306;2023-04-25T02:16:02;6.70;;;1.97;;
75090;SDS011;63674;48.048;8.306;2023-04-25T02:18:31;6.43;;;2.55;;
75090;SDS011;63674;48.048;8.306;2023-04-25T02:21:00;9.23;;;2.60;;
75090;SDS011;63674;48.048;8.306;2023-04-25T02:23:29;6.30;;;2.20;;
75090;SDS011;63674;48.048;8.306;2023-04-25T02:25:58;7.40;;;2.10;;
75090;SDS011;63674;48.048;8.306;2023-04-25T02:28:28;7.47;;;1.90;;
75090;SDS011;63674;48.048;8.306;2023-04-25T02:30:56;6.05;;;2.05;;
75090;SDS011;63674;48.048;8.306;2023-04-25T02:33:25;6.13;;;2.10;;
75090;SDS011;63674;48.048;8.306;2023-04-25T02:35:53;7.20;;;2.10;;
75090;SDS011;63674;48.048;8.306;2023-04-25T02:38:22;5.93;;;2.25;;
75090;SDS011;63674;48.048;8.306;2023-04-25T02:40:50;7.87;;;2.10;;
75090;SDS011;63674;48.048;8.306;2023-04-25T02:43:18;5.65;;;1.98;;
75090;SDS011;63674;48.048;8.306;2023-04-25T02:45:49;7.47;;;2.10;;
75090;SDS011;63674;48.048;8.306;2023-04-25T02:48:18;7.20;;;2.08;;
75090;SDS011;63674;48.048;8.306;2023-04-25T02:50:46;6.38;;;2.15;;
75090;SDS011;63674;48.048;8.306;2023-04-25T02:53:15;7.20;;;2.40;;
75090;SDS011;63674;48.048;8.306;2023-04-25T02:55:43;7.55;;;2.33;;
75090;SDS011;63674;48.048;8.306;2023-04-25T02:58:12;9.30;;;2.42;;
75090;SDS011;63674;48.048;8.306;2023-04-25T03:00:41;7.68;;;2.17;;
75090;SDS011;63674;48.048;8.306;2023-04-25T03:03:11;6.55;;;2.30;;
75090;SDS011;63674;48.048;8.306;2023-04-25T03:05:41;7.40;;;2.00;;
75090;SDS011;63674;48.048;8.306;2023-04-25T03:08:09;6.57;;;2.35;;
75090;SDS011;63674;48.048;8.306;2023-04-25T03:10:38;6.80;;;2.50;;
75090;SDS011;63674;48.048;8.306;2023-04-25T03:13:07;7.72;;;2.17;;
75090;SDS011;63674;48.048;8.306;2023-04-25T03:15:36;7.35;;;2.20;;
75090;SDS011;63674;48.048;8.306;2023-04-25T03:18:05;7.47;;;2.10;;
75090;SDS011;63674;48.048;8.306;2023-04-25T03:20:34;6.68;;;2.10;;
75090;SDS011;63674;48.048;8.306;2023-04-25T03:23:03;6.70;;;2.50;;
75090;SDS011;63674;48.048;8.306;2023-04-25T03:25:31;7.60;;;2.78;;
75090;SDS011;63674;48.048;8.306;2023-04-25T03:28:00;6.80;;;2.30;;
75090;SDS011;63674;48.048;8.306;2023-04-25T03:30:28;7.33;;;2.10;;
75090;SDS011;63674;48.048;8.306;2023-04-25T03:32:57;5.50;;;2.10;;
75090;SDS011;63674;48.048;8.306;2023-04-25T03:35:26;6.43;;;2.30;;
75090;SDS011;63674;48.048;8.306;2023-04-25T03:37:55;5.60;;;2.00;;
75090;SDS011;63674;48.048;8.306;2023-04-25T03:40:24;7.13;;;2.17;;
75090;SDS011;63674;48.048;8.306;2023-04-25T03:42:53;7.93;;;2.40;;
75090;SDS011;63674;48.048;8.306;2023-04-25T03:45:21;6.00;;;2.28;;
75090;SDS011;63674;48.048;8.306;2023-04-25T03:47:50;5.07;;;2.08;;
75090;SDS011;63674;48.048;8.306;2023-04-25T03:50:18;6.18;;;1.98;;
75090;SDS011;63674;48.048;8.306;2023-04-25T03:52:48;5.55;;;2.30;;
75090;SDS011;63674;48.048;8.306;2023-04-25T03:55:18;7.33;;;2.40;;
75090;SDS011;63674;48.048;8.306;2023-04-25T03:57:47;7.25;;;2.30;;
75090;SDS011;63674;48.048;8.306;2023-04-25T04:00:16;8.30;;;2.65;;
75090;SDS011;63674;48.048;8.306;2023-04-25T04:02:44;10.52;;;2.40;;
75090;SDS011;63674;48.048;8.306;2023-04-25T04:05:13;6.18;;;2.20;;
75090;SDS011;63674;48.048;8.306;2023-04-25T04:07:42;7.90;;;1.90;;
75090;SDS011;63674;48.048;8.306;2023-04-25T04:10:10;6.18;;;1.98;;
75090;SDS011;63674;48.048;8.306;2023-04-25T04:12:41;6.40;;;2.20;;
75090;SDS011;63674;48.048;8.306;2023-04-25T04:15:09;7.90;;;2.20;;
75090;SDS011;63674;48.048;8.306;2023-04-25T04:17:39;7.72;;;2.45;;
75090;SDS011;63674;48.048;8.306;2023-04-25T04:20:08;7.97;;;2.23;;
75090;SDS011;63674;48.048;8.306;2023-04-25T04:22:37;6.22;;;2.28;;
75090;SDS011;63674;48.048;8.306;2023-04-25T04:25:06;6.03;;;2.22;;
75090;SDS011;63674;48.048;8.306;2023-04-25T04:27:36;9.02;;;2.50;;
75090;SDS011;63674;48.048;8.306;2023-04-25T04:30:07;5.95;;;2.47;;
75090;SDS011;63674;48.048;8.306;2023-04-25T04:32:37;9.33;;;2.23;;
75090;SDS011;63674;48.048;8.306;2023-04-25T04:35:06;6.82;;;1.88;;
75090;SDS011;63674;48.048;8.306;2023-04-25T04:37:37;8.80;;;4.35;;
75090;SDS011;63674;48.048;8.306;2023-04-25T04:40:06;8.77;;;2.95;;
75090;SDS011;63674;48.048;8.306;2023-04-25T04:42:36;10.05;;;3.92;;
75090;SDS011;63674;48.048;8.306;2023-04-25T04:45:05;10.10;;;3.80;;
75090;SDS011;63674;48.048;8.306;2023-04-25T04:47:36;11.80;;;3.20;;
75090;SDS011;63674;48.048;8.306;2023-04-25T04:50:06;8.57;;;2.95;;
75090;SDS011;63674;48.048;8.306;2023-04-25T04:52:36;8.65;;;2.90;;
75090;SDS011;63674;48.048;8.306;2023-04-25T04:55:06;8.38;;;3.22;;
75090;SDS011;63674;48.048;8.306;2023-04-25T04:57:37;8.20;;;3.80;;
75090;SDS011;63674;48.048;8.306;2023-04-25T05:00:07;6.25;;;2.90;;
75090;SDS011;63674;48.048;8.306;2023-04-25T05:02:38;7.07;;;3.00;;
75090;SDS011;63674;48.048;8.306;2023-04-25T05:05:07;8.40;;;2.97;;
75090;SDS011;63674;48.048;8.306;2023-04-25T05:07:36;11.07;;;2.85;;
75090;SDS011;63674;48.048;8.306;2023-04-25T05:10:06;10.03;;;3.00;;
75090;SDS011;63674;48.048;8.306;2023-04-25T05:12:36;8.55;;;3.25;;
75090;SDS011;63674;48.048;8.306;2023-04-25T05:15:05;10.65;;;3.35;;
75090;SDS011;63674;48.048;8.306;2023-04-25T05:17:35;9.50;;;2.92;;
75090;SDS011;63674;48.048;8.306;2023-04-25T05:20:05;12.65;;;3.80;;
75090;SDS011;63674;48.048;8.306;2023-04-25T05:22:36;12.67;;;3.80;;
75090;SDS011;63674;48.048;8.306;2023-04-25T05:25:04;12.35;;;4.40;;
75090;SDS011;63674;48.048;8.306;2023-04-25T05:27:34;11.85;;;4.05;;
75090;SDS011;63674;48.048;8.306;2023-04-25T05:30:02;10.00;;;3.78;;
75090;SDS011;63674;48.048;8.306;2023-04-25T05:32:33;14.20;;;4.15;;
75090;SDS011;63674;48.048;8.306;2023-04-25T05:35:03;17.33;;;6.20;;
75090;SDS011;63674;48.048;8.306;2023-04-25T05:37:33;15.82;;;5.72;;
75090;SDS011;63674;48.048;8.306;2023-04-25T05:40:02;14.20;;;6.63;;
75090;SDS011;63674;48.048;8.306;2023-04-25T05:42:33;15.95;;;6.55;;
75090;SDS011;63674;48.048;8.306;2023-04-25T05:45:02;12.73;;;5.13;;
75090;SDS011;63674;48.048;8.306;2023-04-25T05:47:31;9.83;;;4.37;;
75090;SDS011;63674;48.048;8.306;2023-04-25T05:50:02;12.23;;;4.78;;
75090;SDS011;63674;48.048;8.306;2023-04-25T05:52:32;11.45;;;5.10;;
75090;SDS011;63674;48.048;8.306;2023-04-25T05:55:01;11.60;;;5.20;;
75090;SDS011;63674;48.048;8.306;2023-04-25T05:57:29;11.80;;;5.68;;
75090;SDS011;63674;48.048;8.306;2023-04-25T05:59:58;12.97;;;5.20;;
75090;SDS011;63674;48.048;8.306;2023-04-25T06:02:49;13.20;;;5.13;;
75090;SDS011;63674;48.048;8.306;2023-04-25T06:05:17;14.27;;;5.20;;
75090;SDS011;63674;48.048;8.306;2023-04-25T06:07:46;11.95;;;4.57;;
75090;SDS011;63674;48.048;8.306;2023-04-25T06:10:15;10.60;;;4.15;;
75090;SDS011;63674;48.048;8.306;2023-04-25T06:12:44;11.47;;;4.00;;
75090;SDS011;63674;48.048;8.306;2023-04-25T06:15:12;10.30;;;3.67;;
75090;SDS011;63674;48.048;8.306;2023-04-25T06:17:55;9.00;;;3.40;;
75090;SDS011;63674;48.048;8.306;2023-04-25T06:20:24;10.15;;;3.97;;
75090;SDS011;63674;48.048;8.306;2023-04-25T06:22:53;13.63;;;4.88;;
75090;SDS011;63674;48.048;8.306;2023-04-25T06:25:21;15.67;;;7.13;;
75090;SDS011;63674;48.048;8.306;2023-04-25T06:27:50;14.55;;;5.25;;
75090;SDS011;63674;48.048;8.306;2023-04-25T06:30:19;9.25;;;3.67;;
75090;SDS011;63674;48.048;8.306;2023-04-25T06:32:51;7.25;;;3.00;;
75090;SDS011;63674;48.048;8.306;2023-04-25T06:35:21;9.07;;;2.78;;
75090;SDS011;63674;48.048;8.306;2023-04-25T06:37:50;9.57;;;4.07;;
75090;SDS011;63674;48.048;8.306;2023-04-25T06:40:18;8.60;;;3.95;;
75090;SDS011;63674;48.048;8.306;2023-04-25T06:42:47;8.40;;;3.30;;
75090;SDS011;63674;48.048;8.306;2023-04-25T06:45:16;8.25;;;3.17;;
75090;SDS011;63674;48.048;8.306;2023-04-25T06:47:44;6.85;;;2.45;;
75090;SDS011;63674;48.048;8.306;2023-04-25T06:50:13;8.63;;;2.60;;
75090;SDS011;63674;48.048;8.306;2023-04-25T06:52:42;9.30;;;3.33;;
75090;SDS011;63674;48.048;8.306;2023-04-25T06:55:11;10.10;;;4.32;;
75090;SDS011;63674;48.048;8.306;2023-04-25T06:57:40;15.20;;;9.60;;
75090;SDS011;63674;48.048;8.306;2023-04-25T07:00:08;6.00;;;1.70;;
75090;SDS011;63674;48.048;8.306;2023-04-25T07:02:59;12.93;;;6.17;;
75090;SDS011;63674;48.048;8.306;2023-04-25T07:05:28;6.57;;;2.40;;
75090;SDS011;63674;48.048;8.306;2023-04-25T07:07:58;5.13;;;2.42;;
75090;SDS011;63674;48.048;8.306;2023-04-25T07:10:29;9.30;;;5.07;;
75090;SDS011;63674;48.048;8.306;2023-04-25T07:12:57;22.20;;;14.07;;
75090;SDS011;63674;48.048;8.306;2023-04-25T07:15:26;5.67;;;1.90;;
75090;SDS011;63674;48.048;8.306;2023-04-25T07:17:55;4.65;;;1.63;;
75090;SDS011;63674;48.048;8.306;2023-04-25T07:20:23;5.97;;;1.67;;
75090;SDS011;63674;48.048;8.306;2023-04-25T07:23:16;6.03;;;1.80;;
75090;SDS011;63674;48.048;8.306;2023-04-25T07:25:45;7.63;;;2.50;;
75090;SDS011;63674;48.048;8.306;2023-04-25T07:28:13;5.00;;;1.70;;
75090;SDS011;63674;48.048;8.306;2023-04-25T07:30:45;7.28;;;3.35;;
75090;SDS011;63674;48.048;8.306;2023-04-25T07:33:14;6.35;;;2.13;;
75090;SDS011;63674;48.048;8.306;2023-04-25T07:35:43;5.85;;;1.63;;
75090;SDS011;63674;48.048;8.306;2023-04-25T07:38:12;5.70;;;2.00;;
75090;SDS011;63674;48.048;8.306;2023-04-25T07:40:42;4.23;;;1.40;;
75090;SDS011;63674;48.048;8.306;2023-04-25T07:43:10;4.95;;;2.45;;
75090;SDS011;63674;48.048;8.306;2023-04-25T07:45:44;4.90;;;2.10;;
75090;SDS011;63674;48.048;8.306;2023-04-25T07:48:16;5.40;;;2.80;;
75090;SDS011;63674;48.048;8.306;2023-04-25T07:50:46;7.85;;;4.65;;
75090;SDS011;63674;48.048;8.306;2023-04-25T07:53:15;7.27;;;3.87;;
75090;SDS011;63674;48.048;8.306;2023-04-25T07:55:46;5.32;;;1.75;;
75090;SDS011;63674;48.048;8.306;2023-04-25T07:58:15;4.32;;;1.75;;
75090;SDS011;63674;48.048;8.306;2023-04-25T08:00:48;4.00;;;1.00;;
75090;SDS011;63674;48.048;8.306;2023-04-25T08:03:17;3.45;;;0.90;;
75090;SDS011;63674;48.048;8.306;2023-04-25T08:05:46;6.27;;;2.07;;
75090;SDS011;63674;48.048;8.306;2023-04-25T08:08:15;4.60;;;1.40;;
75090;SDS011;63674;48.048;8.306;2023-04-25T08:10:43;5.55;;;1.77;;
75090;SDS011;63674;48.048;8.306;2023-04-25T08:13:14;5.43;;;1.50;;
75090;SDS011;63674;48.048;8.306;2023-04-25T08:15:43;4.72;;;1.60;;
75090;SDS011;63674;48.048;8.306;2023-04-25T08:18:11;4.07;;;1.10;;
75090;SDS011;63674;48.048;8.306;2023-04-25T08:21:00;4.13;;;1.40;;
75090;SDS011;63674;48.048;8.306;2023-04-25T08:23:29;3.47;;;1.10;;
75090;SDS011;63674;48.048;8.306;2023-04-25T08:25:59;3.28;;;0.80;;
75090;SDS011;63674;48.048;8.306;2023-04-25T08:28:28;4.35;;;1.63;;
75090;SDS011;63674;48.048;8.306;2023-04-25T08:30:57;3.30;;;0.70;;
75090;SDS011;63674;48.048;8.306;2023-04-25T08:33:26;3.35;;;0.80;;
75090;SDS011;63674;48.048;8.306;2023-04-25T08:35:54;3.13;;;0.63;;
75090;SDS011;63674;48.048;8.306;2023-04-25T08:38:44;3.75;;;0.60;;
75090;SDS011;63674;48.048;8.306;2023-04-25T08:41:14;3.40;;;1.00;;
75090;SDS011;63674;48.048;8.306;2023-04-25T08:43:44;3.10;;;0.57;;
75090;SDS011;63674;48.048;8.306;2023-04-25T08:46:13;3.10;;;0.80;;
75090;SDS011;63674;48.048;8.306;2023-04-25T08:48:49;3.20;;;0.60;;
75090;SDS011;63674;48.048;8.306;2023-04-25T08:51:44;3.17;;;0.50;;
75090;SDS011;63674;48.048;8.306;2023-04-25T08:54:14;3.00;;;0.57;;
75090;SDS011;63674;48.048;8.306;2023-04-25T08:57:04;4.23;;;0.70;;
75090;SDS011;63674;48.048;8.306;2023-04-25T08:59:35;3.05;;;0.60;;
75090;SDS011;63674;48.048;8.306;2023-04-25T09:02:05;2.90;;;0.50;;
75090;SDS011;63674;48.048;8.306;2023-04-25T09:04:35;2.53;;;0.40;;
75090;SDS011;63674;48.048;8.306;2023-04-25T09:07:04;2.63;;;0.40;;
75090;SDS011;63674;48.048;8.306;2023-04-25T09:09:33;2.43;;;0.40;;
75090;SDS011;63674;48.048;8.306;2023-04-25T09:12:02;2.33;;;0.30;;
75090;SDS011;63674;48.048;8.306;2023-04-25T09:14:32;2.40;;;0.50;;
75090;SDS011;63674;48.048;8.306;2023-04-25T09:17:01;2.50;;;0.38;;
75090;SDS011;63674;48.048;8.306;2023-04-25T09:19:34;4.72;;;1.90;;
75090;SDS011;63674;48.048;8.306;2023-04-25T09:22:07;10.17;;;4.97;;
75090;SDS011;63674;48.048;8.306;2023-04-25T09:24:37;3.95;;;1.25;;
75090;SDS011;63674;48.048;8.306;2023-04-25T09:27:08;3.30;;;0.90;;
75090;SDS011;63674;48.048;8.306;2023-04-25T09:29:40;3.35;;;0.68;;
75090;SDS011;63674;48.048;8.306;2023-04-25T09:32:14;5.35;;;2.42;;
75090;SDS011;63674;48.048;8.306;2023-04-25T09:34:48;2.97;;;0.60;;
75090;SDS011;63674;48.048;8.306;2023-04-25T09:37:18;3.25;;;0.70;;
75090;SDS011;63674;48.048;8.306;2023-04-25T09:39:49;3.63;;;0.90;;
75090;SDS011;63674;48.048;8.306;2023-04-25T09:42:21;2.88;;;0.50;;
75090;SDS011;63674;48.048;8.306;2023-04-25T09:44:53;3.00;;;0.60;;
75090;SDS011;63674;48.048;8.306;2023-04-25T09:47:24;3.30;;;0.90;;
75090;SDS011;63674;48.048;8.306;2023-04-25T09:49:55;4.20;;;1.35;;
75090;SDS011;63674;48.048;8.306;2023-04-25T09:52:24;3.03;;;0.47;;
75090;SDS011;63674;48.048;8.306;2023-04-25T09:54:53;3.17;;;0.50;;
75090;SDS011;63674;48.048;8.306;2023-04-25T09:57:22;2.70;;;0.50;;
75090;SDS011;63674;48.048;8.306;2023-04-25T09:59:54;2.90;;;0.57;;
75090;SDS011;63674;48.048;8.306;2023-04-25T10:02:24;2.75;;;0.40;;
75090;SDS011;63674;48.048;8.306;2023-04-25T10:04:54;2.80;;;0.50;;
75090;SDS011;63674;48.048;8.306;2023-04-25T10:07:23;2.72;;;0.50;;
75090;SDS011;63674;48.048;8.306;2023-04-25T10:09:56;2.70;;;0.50;;
75090;SDS011;63674;48.048;8.306;2023-04-25T10:12:28;2.67;;;0.50;;
75090;SDS011;63674;48.048;8.306;2023-04-25T10:14:59;2.55;;;0.40;;
75090;SDS011;63674;48.048;8.306;2023-04-25T10:17:31;2.90;;;0.50;;
75090;SDS011;63674;48.048;8.306;2023-04-25T10:20:01;2.65;;;0.40;;
75090;SDS011;63674;48.048;8.306;2023-04-25T10:22:32;3.42;;;0.60;;
75090;SDS011;63674;48.048;8.306;2023-04-25T10:25:04;3.50;;;0.50;;
75090;SDS011;63674;48.048;8.306;2023-04-25T10:27:34;2.63;;;0.40;;
75090;SDS011;63674;48.048;8.306;2023-04-25T10:30:06;2.80;;;0.60;;
75090;SDS011;63674;48.048;8.306;2023-04-25T10:32:39;5.03;;;0.57;;
75090;SDS011;63674;48.048;8.306;2023-04-25T10:35:13;3.10;;;0.65;;
75090;SDS011;63674;48.048;8.306;2023-04-25T10:37:59;3.37;;;0.70;;
75090;SDS011;63674;48.048;8.306;2023-04-25T10:40:31;3.92;;;1.30;;
75090;SDS011;63674;48.048;8.306;2023-04-25T10:46:19;4.38;;;0.88;;
75090;SDS011;63674;48.048;8.306;2023-04-25T10:48:50;3.28;;;0.75;;
75090;SDS011;63674;48.048;8.306;2023-04-25T10:51:21;3.10;;;0.80;;
75090;SDS011;63674;48.048;8.306;2023-04-25T10:53:58;3.92;;;1.25;;
75090;SDS011;63674;48.048;8.306;2023-04-25T10:56:29;6.13;;;1.40;;
75090;SDS011;63674;48.048;8.306;2023-04-25T10:59:05;4.22;;;1.45;;
75090;SDS011;63674;48.048;8.306;2023-04-25T11:01:41;4.97;;;2.15;;
75090;SDS011;63674;48.048;8.306;2023-04-25T11:04:20;4.03;;;1.47;;
75090;SDS011;63674;48.048;8.306;2023-04-25T11:06:55;4.20;;;1.50;;
75090;SDS011;63674;48.048;8.306;2023-04-25T11:09:34;4.05;;;1.52;;
75090;SDS011;63674;48.048;8.306;2023-04-25T11:12:04;5.30;;;2.35;;
75090;SDS011;63674;48.048;8.306;2023-04-25T11:14:35;9.05;;;3.72;;
75090;SDS011;63674;48.048;8.306;2023-04-25T11:17:10;4.07;;;1.40;;
75090;SDS011;63674;48.048;8.306;2023-04-25T11:19:39;5.03;;;1.75;;
75090;SDS011;63674;48.048;8.306;2023-04-25T11:22:09;17.35;;;8.65;;
75090;SDS011;63674;48.048;8.306;2023-04-25T11:24:38;8.82;;;4.18;;
75090;SDS011;63674;48.048;8.306;2023-04-25T11:27:07;5.78;;;2.47;;
75090;SDS011;63674;48.048;8.306;2023-04-25T11:29:36;6.00;;;1.97;;
75090;SDS011;63674;48.048;8.306;2023-04-25T11:32:05;7.40;;;2.00;;
75090;SDS011;63674;48.048;8.306;2023-04-25T11:34:35;6.03;;;2.78;;
75090;SDS011;63674;48.048;8.306;2023-04-25T11:37:04;4.45;;;1.70;;
75090;SDS011;63674;48.048;8.306;2023-04-25T11:39:33;4.88;;;1.60;;
75090;SDS011;63674;48.048;8.306;2023-04-25T11:42:02;4.63;;;1.50;;
75090;SDS011;63674;48.048;8.306;2023-04-25T11:44:39;4.45;;;1.75;;
75090;SDS011;63674;48.048;8.306;2023-04-25T11:47:08;5.70;;;2.22;;
75090;SDS011;63674;48.048;8.306;2023-04-25T11:49:37;7.47;;;2.65;;
75090;SDS011;63674;48.048;8.306;2023-04-25T11:52:06;5.53;;;2.13;;
75090;SDS011;63674;48.048;8.306;2023-04-25T11:54:35;4.30;;;1.50;;
75090;SDS011;63674;48.048;8.306;2023-04-25T11:57:04;5.60;;;2.08;;
75090;SDS011;63674;48.048;8.306;2023-04-25T11:59:33;7.05;;;2.47;;
75090;SDS011;63674;48.048;8.306;2023-04-25T12:02:01;5.05;;;1.50;;
75090;SDS011;63674;48.048;8.306;2023-04-25T12:04:30;5.22;;;1.80;;
75090;SDS011;63674;48.048;8.306;2023-04-25T12:07:01;3.90;;;1.40;;
75090;SDS011;63674;48.048;8.306;2023-04-25T12:09:30;5.75;;;1.42;;
75090;SDS011;63674;48.048;8.306;2023-04-25T12:12:00;4.03;;;1.48;;
75090;SDS011;63674;48.048;8.306;2023-04-25T12:14:30;4.53;;;1.30;;
75090;SDS011;63674;48.048;8.306;2023-04-25T12:17:02;4.00;;;1.40;;
75090;SDS011;63674;48.048;8.306;2023-04-25T12:19:35;3.87;;;1.20;;
75090;SDS011;63674;48.048;8.306;2023-04-25T12:22:20;4.53;;;1.40;;
75090;SDS011;63674;48.048;8.306;2023-04-25T12:24:50;4.30;;;1.30;;
75090;SDS011;63674;48.048;8.306;2023-04-25T12:27:20;5.93;;;1.48;;
75090;SDS011;63674;48.048;8.306;2023-04-25T12:29:52;4.97;;;2.10;;
75090;SDS011;63674;48.048;8.306;2023-04-25T12:32:22;5.70;;;1.63;;
75090;SDS011;63674;48.048;8.306;2023-04-25T12:34:51;4.50;;;1.52;;
75090;SDS011;63674;48.048;8.306;2023-04-25T12:37:21;4.13;;;1.40;;
75090;SDS011;63674;48.048;8.306;2023-04-25T12:39:50;3.72;;;1.13;;
75090;SDS011;63674;48.048;8.306;2023-04-25T12:42:18;4.55;;;1.70;;
75090;SDS011;63674;48.048;8.306;2023-04-25T12:44:47;3.80;;;1.13;;
75090;SDS011;63674;48.048;8.306;2023-04-25T12:47:15;4.72;;;1.20;;
75090;SDS011;63674;48.048;8.306;2023-04-25T12:49:44;4.55;;;1.27;;
75090;SDS011;63674;48.048;8.306;2023-04-25T12:52:13;3.90;;;1.20;;
75090;SDS011;63674;48.048;8.306;2023-04-25T12:54:43;3.90;;;1.50;;
75090;SDS011;63674;48.048;8.306;2023-04-25T12:57:11;7.00;;;2.07;;
75090;SDS011;63674;48.048;8.306;2023-04-25T12:59:40;4.15;;;1.08;;
75090;SDS011;63674;48.048;8.306;2023-04-25T13:02:08;6.28;;;2.00;;
75090;SDS011;63674;48.048;8.306;2023-04-25T13:04:37;5.22;;;1.20;;
75090;SDS011;63674;48.048;8.306;2023-04-25T13:07:06;3.80;;;1.00;;
75090;SDS011;63674;48.048;8.306;2023-04-25T13:09:34;4.60;;;0.90;;
75090;SDS011;63674;48.048;8.306;2023-04-25T13:12:04;4.13;;;1.10;;
75090;SDS011;63674;48.048;8.306;2023-04-25T13:14:33;3.70;;;0.90;;
75090;SDS011;63674;48.048;8.306;2023-04-25T13:17:02;3.80;;;0.90;;
75090;SDS011;63674;48.048;8.306;2023-04-25T13:19:31;3.85;;;1.10;;
75090;SDS011;63674;48.048;8.306;2023-04-25T13:22:00;4.20;;;1.03;;
75090;SDS011;63674;48.048;8.306;2023-04-25T13:24:30;3.60;;;1.00;;
75090;SDS011;63674;48.048;8.306;2023-04-25T13:26:59;4.97;;;1.30;;
75090;SDS011;63674;48.048;8.306;2023-04-25T13:29:29;4.70;;;1.33;;
75090;SDS011;63674;48.048;8.306;2023-04-25T13:31:58;4.45;;;1.30;;
75090;SDS011;63674;48.048;8.306;2023-04-25T13:34:27;4.37;;;1.20;;
75090;SDS011;63674;48.048;8.306;2023-04-25T13:36:57;4.03;;;1.08;;
75090;SDS011;63674;48.048;8.306;2023-04-25T13:39:25;3.95;;;1.35;;
75090;SDS011;63674;48.048;8.306;2023-04-25T13:41:56;4.15;;;1.10;;
75090;SDS011;63674;48.048;8.306;2023-04-25T13:44:25;4.20;;;1.30;;
75090;SDS011;63674;48.048;8.306;2023-04-25T13:46:55;3.80;;;0.80;;
75090;SDS011;63674;48.048;8.306;2023-04-25T13:49:24;3.75;;;0.93;;
75090;SDS011;63674;48.048;8.306;2023-04-25T13:51:52;4.15;;;1.10;;
75090;SDS011;63674;48.048;8.306;2023-04-25T13:54:21;3.53;;;0.98;;
75090;SDS011;63674;48.048;8.306;2023-04-25T13:56:50;3.50;;;0.88;;
75090;SDS011;63674;48.048;8.306;2023-04-25T13:59:21;3.40;;;0.70;;
75090;SDS011;63674;48.048;8.306;2023-04-25T14:01:50;3.55;;;0.50;;
75090;SDS011;63674;48.048;8.306;2023-04-25T14:04:20;3.22;;;0.70;;
75090;SDS011;63674;48.048;8.306;2023-04-25T14:06:49;2.70;;;0.40;;
75090;SDS011;63674;48.048;8.306;2023-04-25T14:09:19;2.63;;;0.40;;
75090;SDS011;63674;48.048;8.306;2023-04-25T14:11:52;4.17;;;0.53;;
75090;SDS011;63674;48.048;8.306;2023-04-25T14:14:21;3.22;;;0.60;;
75090;SDS011;63674;48.048;8.306;2023-04-25T14:16:50;3.15;;;0.65;;
75090;SDS011;63674;48.048;8.306;2023-04-25T14:19:22;4.75;;;0.82;;
75090;SDS011;63674;48.048;8.306;2023-04-25T14:21:50;3.20;;;0.70;;
75090;SDS011;63674;48.048;8.306;2023-04-25T14:24:19;3.07;;;0.60;;
75090;SDS011;63674;48.048;8.306;2023-04-25T14:26:48;3.55;;;0.60;;
75090;SDS011;63674;48.048;8.306;2023-04-25T14:29:16;3.50;;;0.70;;
75090;SDS011;63674;48.048;8.306;2023-04-25T14:31:45;2.90;;;0.40;;
75090;SDS011;63674;48.048;8.306;2023-04-25T14:34:14;3.17;;;0.80;;
75090;SDS011;63674;48.048;8.306;2023-04-25T14:36:44;2.87;;;0.50;;
75090;SDS011;63674;48.048;8.306;2023-04-25T14:39:12;2.92;;;0.60;;
75090;SDS011;63674;48.048;8.306;2023-04-25T14:41:41;3.22;;;0.80;;
75090;SDS011;63674;48.048;8.306;2023-04-25T14:44:10;3.05;;;0.60;;
75090;SDS011;63674;48.048;8.306;2023-04-25T14:46:38;2.80;;;0.50;;
75090;SDS011;63674;48.048;8.306;2023-04-25T14:49:07;2.80;;;0.50;;
75090;SDS011;63674;48.048;8.306;2023-04-25T14:51:35;3.20;;;0.70;;
75090;SDS011;63674;48.048;8.306;2023-04-25T14:54:05;3.22;;;0.80;;
75090;SDS011;63674;48.048;8.306;2023-04-25T14:56:34;3.03;;;0.60;;
75090;SDS011;63674;48.048;8.306;2023-04-25T14:59:02;3.38;;;0.80;;
75090;SDS011;63674;48.048;8.306;2023-04-25T15:01:31;5.50;;;1.50;;
75090;SDS011;63674;48.048;8.306;2023-04-25T15:03:59;5.03;;;1.60;;
75090;SDS011;63674;48.048;8.306;2023-04-25T15:06:28;4.05;;;1.00;;